Time;durP1;ratioP1;P1;durP2;ratioP2;P2;SDS_P1;SDS_P2;PMS_P1;PMS_P2;Temp;Humidity;BMP_temperature;BMP_pressure;BME280_temperature;BME280_humidity;BME280_pressure;Samples;Min_cycle;Max_cycle;Signal;HPM_P1;HPM_P2
2022/05/22 00:01:39;;;;;;;7.00;3.17;;;12.00;99.90;;;;;;5033920;28;20018;-71
2022/05/22 00:04:04;;;;;;;9.65;3.53;;;12.10;99.90;;;;;;5033490;28;20033;-71
2022/05/22 00:06:30;;;;;;;6.15;2.90;;;12.00;99.90;;;;;;5034007;28;20021;-72
2022/05/22 00:08:55;;;;;;;5.53;2.85;;;11.90;99.90;;;;;;5034128;28;20026;-72
2022/05/22 00:11:22;;;;;;;4.65;3.22;;;12.00;99.90;;;;;;5033310;28;20509;-71
2022/05/22 00:13:48;;;;;;;8.73;3.25;;;;;;;;;;5033990;28;20075;-72
2022/05/22 00:18:58;;;;;;;4.93;2.88;;;;;;;;;;5033375;28;20040;-72
2022/05/22 00:21:25;;;;;;;6.55;3.72;;;11.90;99.90;;;;;;5033556;28;20146;-72
2022/05/22 00:23:51;;;;;;;6.82;2.83;;;11.80;99.90;;;;;;5033713;28;20045;-72
2022/05/22 00:26:17;;;;;;;8.48;3.47;;;;;;;;;;5033082;28;20417;-72
2022/05/22 00:28:43;;;;;;;7.97;3.35;;;11.70;99.90;;;;;;5031659;28;20091;-72
2022/05/22 00:31:08;;;;;;;5.50;3.35;;;11.70;99.90;;;;;;5013583;28;20034;-72
2022/05/22 00:33:35;;;;;;;8.55;4.53;;;11.60;99.90;;;;;;5013031;28;20069;-72
2022/05/22 00:36:00;;;;;;;9.43;4.55;;;11.60;99.90;;;;;;5013425;28;20040;-72
2022/05/22 00:38:26;;;;;;;7.13;3.70;;;11.60;99.90;;;;;;5013409;28;20034;-72
2022/05/22 00:40:51;;;;;;;7.45;3.47;;;11.60;99.90;;;;;;5013732;28;20034;-72
2022/05/22 00:43:30;;;;;;;7.35;3.65;;;11.50;99.90;;;;;;5013017;28;20403;-72
2022/05/22 00:45:57;;;;;;;8.52;3.50;;;11.60;99.90;;;;;;5013797;28;20112;-72
2022/05/22 00:48:24;;;;;;;8.40;4.93;;;11.50;99.90;;;;;;5012711;28;20022;-72
2022/05/22 00:50:52;;;;;;;8.98;4.05;;;11.50;99.90;;;;;;5013548;28;20037;-72
2022/05/22 00:53:19;;;;;;;9.25;3.85;;;11.50;99.90;;;;;;5012843;28;20022;-72
2022/05/22 00:55:45;;;;;;;4.45;3.45;;;;;;;;;;5013251;28;20486;-72
2022/05/22 00:58:14;;;;;;;8.60;3.58;;;11.40;99.90;;;;;;5013162;28;20107;-72
2022/05/22 01:00:40;;;;;;;5.72;3.67;;;11.30;99.90;;;;;;5029156;28;20509;-71
2022/05/22 01:03:44;;;;;;;8.02;3.85;;;11.40;99.90;;;;;;5032460;28;20120;-72
2022/05/22 01:06:11;;;;;;;7.78;3.85;;;11.40;99.90;;;;;;5031497;28;20059;-72
2022/05/22 01:08:37;;;;;;;7.05;4.97;;;11.30;99.90;;;;;;5032823;28;20075;-72
2022/05/22 01:11:15;;;;;;;7.10;3.60;;;11.10;99.90;;;;;;5032468;28;20057;-71
2022/05/22 01:13:48;;;;;;;4.45;3.47;;;11.40;99.90;;;;;;5033065;28;20029;-72
2022/05/22 01:16:14;;;;;;;8.50;5.25;;;;;;;;;;5032438;28;20057;-72
2022/05/22 01:18:46;;;;;;;5.97;3.55;;;11.30;99.90;;;;;;5032251;28;20080;-72
2022/05/22 01:21:15;;;;;;;4.82;3.20;;;11.30;99.90;;;;;;5032465;28;20049;-72
2022/05/22 01:23:40;;;;;;;7.13;3.15;;;11.30;99.90;;;;;;5032788;28;20171;-72
2022/05/22 01:26:06;;;;;;;4.43;2.92;;;;;;;;;;5032319;28;20100;-72
2022/05/22 01:28:32;;;;;;;6.85;3.72;;;11.30;99.90;;;;;;5031168;28;20022;-72
2022/05/22 01:31:00;;;;;;;7.40;3.35;;;;;;;;;;5011050;28;20045;-72
2022/05/22 01:33:26;;;;;;;8.70;4.25;;;11.50;99.90;;;;;;5013258;28;20168;-72
2022/05/22 01:35:51;;;;;;;7.28;3.90;;;11.20;99.90;;;;;;5012684;28;20109;-72
2022/05/22 01:38:17;;;;;;;4.03;3.25;;;11.20;99.90;;;;;;5010554;28;20109;-72
2022/05/22 01:40:42;;;;;;;9.07;3.83;;;11.10;99.90;;;;;;5012634;28;20040;-72
2022/05/22 01:43:08;;;;;;;7.80;3.30;;;;;;;;;;5012220;28;20414;-72
2022/05/22 01:45:34;;;;;;;7.10;3.92;;;11.00;99.90;;;;;;5011792;28;20038;-72
2022/05/22 01:48:00;;;;;;;8.35;4.32;;;11.00;99.90;;;;;;5012052;28;20030;-72
2022/05/22 01:50:25;;;;;;;5.45;4.35;;;10.90;99.90;;;;;;5012098;28;20030;-72
2022/05/22 01:52:51;;;;;;;7.82;4.75;;;10.90;99.90;;;;;;5012372;28;20096;-72
2022/05/22 01:55:17;;;;;;;6.20;3.88;;;;;;;;;;5010555;28;20100;-72
2022/05/22 01:57:42;;;;;;;9.25;4.65;;;10.90;99.90;;;;;;5010771;28;20042;-72
2022/05/22 02:00:13;;;;;;;8.00;4.57;;;10.80;99.90;;;;;;5026656;28;20025;-72
2022/05/22 02:02:39;;;;;;;5.65;3.92;;;;;;;;;;5011918;28;20095;-72
2022/05/22 02:05:05;;;;;;;7.65;4.32;;;;;;;;;;5011788;28;20033;-72
2022/05/22 02:10:15;;;;;;;7.47;4.20;;;10.70;99.90;;;;;;5011471;28;20040;-72
2022/05/22 02:12:41;;;;;;;5.70;4.18;;;10.60;99.90;;;;;;5011839;28;20081;-72
2022/05/22 02:15:07;;;;;;;8.40;4.18;;;10.60;99.90;;;;;;5011170;28;20037;-72
2022/05/22 02:17:33;;;;;;;6.70;4.35;;;10.60;99.90;;;;;;5011560;28;20037;-72
2022/05/22 02:19:59;;;;;;;5.43;4.18;;;;;;;;;;5011616;28;20379;-71
2022/05/22 02:22:25;;;;;;;8.50;4.40;;;;;;;;;;5010943;28;20034;-72
2022/05/22 02:24:53;;;;;;;6.13;3.78;;;10.40;99.90;;;;;;5011691;28;20034;-72
2022/05/22 02:27:19;;;;;;;5.78;4.47;;;;;;;;;;5011220;28;20096;-72
2022/05/22 02:29:45;;;;;;;5.85;4.63;;;10.40;99.90;;;;;;5023951;28;20030;-72
2022/05/22 02:32:10;;;;;;;6.88;4.25;;;10.40;99.90;;;;;;5031018;28;20036;-72
2022/05/22 02:34:36;;;;;;;6.90;3.50;;;10.30;99.90;;;;;;5031016;28;20100;-72
2022/05/22 02:37:02;;;;;;;4.82;3.65;;;10.30;99.90;;;;;;5031030;28;20026;-72
2022/05/22 02:39:28;;;;;;;5.32;4.35;;;10.30;99.90;;;;;;5030981;28;20036;-72
2022/05/22 02:41:53;;;;;;;4.18;3.53;;;10.00;99.90;;;;;;5031237;28;20037;-72
2022/05/22 02:44:19;;;;;;;5.82;3.40;;;10.20;99.90;;;;;;5030210;28;20121;-72
2022/05/22 02:46:44;;;;;;;5.38;4.15;;;10.30;99.90;;;;;;5031062;28;20026;-72
2022/05/22 02:49:10;;;;;;;7.50;4.10;;;;;;;;;;5030788;28;20033;-72
2022/05/22 02:51:36;;;;;;;8.07;3.78;;;;;;;;;;5030896;28;20078;-72
2022/05/22 02:54:03;;;;;;;7.07;4.05;;;10.10;99.90;;;;;;5030749;28;20029;-72
2022/05/22 02:56:29;;;;;;;8.05;4.03;;;;;;;;;;5030768;28;20494;-72
2022/05/22 02:58:54;;;;;;;10.50;5.07;;;10.10;99.90;;;;;;5020433;28;20514;-72
2022/05/22 03:01:20;;;;;;;7.57;3.80;;;;;;;;;;5010854;28;20032;-72
2022/05/22 03:03:46;;;;;;;12.20;5.30;;;10.10;99.90;;;;;;5011185;28;20430;-72
2022/05/22 03:08:56;;;;;;;6.05;4.35;;;;;;;;;;5011039;28;20123;-72
2022/05/22 03:11:22;;;;;;;5.88;4.45;;;10.10;99.90;;;;;;5010245;28;20507;-72
2022/05/22 03:13:47;;;;;;;6.50;4.93;;;10.10;99.90;;;;;;5010456;28;20434;-72
2022/05/22 03:16:13;;;;;;;5.28;4.13;;;10.10;99.90;;;;;;5010744;28;20030;-72
2022/05/22 03:18:39;;;;;;;6.95;4.95;;;;;;;;;;5010637;28;20042;-72
2022/05/22 03:21:05;;;;;;;7.32;4.80;;;9.90;99.90;;;;;;5010545;28;20026;-72
2022/05/22 03:23:31;;;;;;;7.93;5.05;;;;;;;;;;5009285;28;20030;-72
2022/05/22 03:25:57;;;;;;;6.28;4.70;;;;;;;;;;5010640;28;20032;-72
2022/05/22 03:28:23;;;;;;;7.20;4.88;;;;;;;;;;5013103;28;20393;-72
2022/05/22 03:30:49;;;;;;;8.77;4.88;;;10.00;99.90;;;;;;5030313;28;20032;-72
2022/05/22 03:33:15;;;;;;;10.07;5.10;;;10.00;99.90;;;;;;5029829;28;20033;-71
2022/05/22 03:35:41;;;;;;;8.52;5.35;;;10.00;99.90;;;;;;5029373;28;20426;-72
2022/05/22 03:38:07;;;;;;;5.90;4.75;;;10.00;99.90;;;;;;5028644;28;20067;-72
2022/05/22 03:40:33;;;;;;;7.95;5.30;;;;;;;;;;5030078;28;20049;-72
2022/05/22 03:43:00;;;;;;;7.22;4.72;;;;;;;;;;5029684;28;20374;-72
2022/05/22 03:45:25;;;;;;;9.77;5.00;;;9.90;99.90;;;;;;5029840;28;20017;-72
2022/05/22 03:47:51;;;;;;;8.88;4.97;;;10.00;99.90;;;;;;5030186;28;20029;-72
2022/05/22 03:50:16;;;;;;;6.55;4.63;;;9.90;99.90;;;;;;5029493;28;20029;-72
2022/05/22 03:52:44;;;;;;;8.65;5.78;;;10.10;99.90;;;;;;5028691;28;20501;-72
2022/05/22 03:55:12;;;;;;;8.02;5.00;;;9.90;99.90;;;;;;5029165;28;20040;-72
2022/05/22 03:57:38;;;;;;;5.65;4.40;;;9.90;99.90;;;;;;5029265;28;20029;-72
2022/05/22 04:00:08;;;;;;;8.05;5.32;;;9.70;99.90;;;;;;5029298;28;20466;-72
2022/05/22 04:02:34;;;;;;;11.18;5.68;;;9.90;99.90;;;;;;5029628;28;20036;-72
2022/05/22 04:05:00;;;;;;;6.90;5.53;;;9.90;99.90;;;;;;5029592;28;20056;-72
2022/05/22 04:07:26;;;;;;;8.30;5.17;;;;;;;;;;5029415;28;20061;-72
2022/05/22 04:09:52;;;;;;;11.47;5.53;;;;;;;;;;5030007;28;20031;-72
2022/05/22 04:12:17;;;;;;;10.73;5.85;;;9.90;99.90;;;;;;5028461;28;20049;-72
2022/05/22 04:14:43;;;;;;;7.72;5.72;;;9.90;99.90;;;;;;5010314;28;20042;-72
2022/05/22 04:17:09;;;;;;;8.27;5.43;;;10.00;99.90;;;;;;5009943;28;20494;-72
2022/05/22 04:19:36;;;;;;;7.38;5.07;;;9.90;99.90;;;;;;5009982;28;20037;-71
2022/05/22 04:22:02;;;;;;;12.70;8.50;;;10.00;99.90;;;;;;5009743;28;20061;-72
2022/05/22 04:27:12;;;;;;;;;;;10.10;99.90;;;;;;5009936;28;20029;-72
2022/05/22 04:29:38;;;;;;;14.33;8.90;;;;;;;;;;5025665;28;20278;-72
2022/05/22 04:32:04;;;;;;;11.07;8.47;;;10.50;99.90;;;;;;5029416;28;20545;-72
2022/05/22 04:34:30;;;;;;;11.50;7.47;;;;;;;;;;5029249;28;20439;-72
2022/05/22 04:36:56;;;;;;;10.75;6.85;;;;;;;;;;5029581;28;20064;-72
2022/05/22 04:39:22;;;;;;;7.27;6.57;;;;;;;;;;5028850;28;20120;-71
2022/05/22 04:41:47;;;;;;;8.20;6.10;;;10.50;99.90;;;;;;5029276;28;20415;-72
2022/05/22 04:44:14;;;;;;;10.85;6.10;;;;;;;;;;5029261;28;20034;-72
2022/05/22 04:46:39;;;;;;;12.45;6.82;;;10.60;99.90;;;;;;5031669;28;20025;-72
2022/05/22 04:49:05;;;;;;;9.03;6.77;;;10.70;99.90;;;;;;5033016;28;20030;-72
2022/05/22 04:51:31;;;;;;;12.23;8.30;;;10.80;99.90;;;;;;5033009;28;20113;-72
2022/05/22 04:53:57;;;;;;;9.57;7.22;;;;;;;;;;5032751;28;20449;-72
2022/05/22 04:56:22;;;;;;;8.20;6.00;;;11.10;99.90;;;;;;5032817;28;20542;-72
2022/05/22 04:58:48;;;;;;;8.40;6.25;;;;;;;;;;5019882;28;20037;-72
2022/05/22 05:01:15;;;;;;;7.05;6.40;;;11.00;99.90;;;;;;5012891;28;20064;-72
2022/05/22 05:03:41;;;;;;;16.08;7.97;;;;;;;;;;5013129;28;20088;-72
2022/05/22 05:06:06;;;;;;;10.10;8.40;;;11.10;99.90;;;;;;5013136;28;20083;-72
2022/05/22 05:08:32;;;;;;;14.85;10.52;;;11.10;99.90;;;;;;5011355;28;20485;-72
2022/05/22 05:10:59;;;;;;;14.73;10.48;;;10.80;99.90;;;;;;5013072;28;20794;-72
2022/05/22 05:13:26;;;;;;;13.80;10.30;;;11.40;99.90;;;;;;5011700;28;20034;-72
2022/05/22 05:16:07;;;;;;;14.18;9.75;;;11.50;99.90;;;;;;5013208;28;20053;-72
2022/05/22 05:18:33;;;;;;;11.85;9.73;;;11.60;99.90;;;;;;5012515;28;20376;-72
2022/05/22 05:21:03;;;;;;;10.73;7.57;;;11.30;99.90;;;;;;5012793;28;20044;-72
2022/05/22 05:23:29;;;;;;;12.75;10.07;;;11.30;99.90;;;;;;5012300;28;20429;-72
2022/05/22 05:25:54;;;;;;;15.30;10.30;;;11.60;99.90;;;;;;5013014;28;20038;-72
2022/05/22 05:28:20;;;;;;;17.85;11.43;;;;;;;;;;5017838;28;20026;-72
2022/05/22 05:30:46;;;;;;;16.08;12.50;;;12.10;99.90;;;;;;5021257;28;20044;-72
2022/05/22 05:33:11;;;;;;;13.75;11.15;;;11.90;99.90;;;;;;5032389;28;20025;-72
2022/05/22 05:35:37;;;;;;;18.13;13.90;;;;;;;;;;5032373;28;20421;-72
2022/05/22 05:38:03;;;;;;;16.95;12.70;;;12.30;99.90;;;;;;5031749;28;20037;-72
2022/05/22 05:40:29;;;;;;;13.05;11.05;;;12.30;99.90;;;;;;5032247;28;20027;-72
2022/05/22 05:42:54;;;;;;;15.13;11.70;;;12.20;99.90;;;;;;5032530;28;20383;-72
2022/05/22 05:45:21;;;;;;;17.88;10.70;;;12.30;99.90;;;;;;5031626;28;20136;-72
2022/05/22 05:47:47;;;;;;;17.42;12.50;;;12.10;99.90;;;;;;5032354;28;20017;-72
2022/05/22 05:50:21;;;;;;;20.98;16.52;;;12.50;99.90;;;;;;5030866;28;20113;-72
2022/05/22 05:52:51;;;;;;;22.45;16.08;;;12.70;99.90;;;;;;5031816;28;20422;-71
2022/05/22 05:55:17;;;;;;;24.30;15.18;;;12.70;99.90;;;;;;5031724;28;20112;-72
2022/05/22 05:57:42;;;;;;;29.48;18.02;;;12.90;99.90;;;;;;5026273;28;20109;-72
2022/05/22 06:00:11;;;;;;;23.48;17.25;;;12.80;99.90;;;;;;5012131;28;20033;-72
2022/05/22 06:02:36;;;;;;;29.75;20.17;;;13.00;99.90;;;;;;5012104;28;20084;-72
2022/05/22 06:05:04;;;;;;;23.52;18.27;;;13.00;99.90;;;;;;5012034;28;20033;-72
2022/05/22 06:07:29;;;;;;;25.42;17.70;;;13.10;99.90;;;;;;5011425;28;20057;-72
2022/05/22 06:09:55;;;;;;;19.45;14.93;;;13.20;99.90;;;;;;5012197;28;20066;-72
2022/05/22 06:12:21;;;;;;;21.58;13.65;;;13.20;99.90;;;;;;5011349;28;20117;-72
2022/05/22 06:14:47;;;;;;;20.15;13.65;;;13.40;99.90;;;;;;5011995;28;20033;-72
2022/05/22 06:17:13;;;;;;;20.30;14.35;;;13.40;99.90;;;;;;5011803;28;20048;-72
2022/05/22 06:19:54;;;;;;;17.70;10.52;;;13.50;99.90;;;;;;5011788;28;20030;-72
2022/05/22 06:22:21;;;;;;;11.40;9.90;;;13.50;99.90;;;;;;5011042;28;20025;-72
2022/05/22 06:24:48;;;;;;;11.95;8.27;;;13.70;99.90;;;;;;5011833;28;20032;-72
2022/05/22 06:27:14;;;;;;;18.95;9.68;;;13.80;99.90;;;;;;5011739;28;20029;-72
2022/05/22 06:29:40;;;;;;;11.15;8.38;;;13.90;99.90;;;;;;5031074;28;20025;-72
2022/05/22 06:32:07;;;;;;;11.63;7.22;;;13.90;99.90;;;;;;5031294;28;20032;-72
2022/05/22 06:34:34;;;;;;;10.90;6.68;;;13.80;99.90;;;;;;5031195;28;20029;-72
2022/05/22 06:37:02;;;;;;;10.73;6.88;;;14.10;99.90;;;;;;5029419;28;20113;-72
2022/05/22 06:42:22;;;;;;;11.63;5.38;;;14.20;99.90;;;;;;5031188;28;20398;-72
2022/05/22 06:44:56;;;;;;;11.57;5.50;;;14.00;99.90;;;;;;5030964;28;20371;-72
2022/05/22 06:47:23;;;;;;;16.17;7.75;;;14.20;99.90;;;;;;5030627;28;20029;-72
2022/05/22 06:49:49;;;;;;;15.95;7.70;;;14.40;99.90;;;;;;5030999;28;20083;-75
2022/05/22 06:52:15;;;;;;;14.85;8.93;;;14.30;99.90;;;;;;5029909;28;20037;-71
2022/05/22 06:54:41;;;;;;;10.38;5.82;;;14.50;99.90;;;;;;5031015;28;20033;-74
2022/05/22 06:57:07;;;;;;;12.82;8.00;;;14.50;99.90;;;;;;5030759;28;20026;-72
2022/05/22 06:59:32;;;;;;;14.70;7.10;;;14.70;99.90;;;;;;5029936;28;20052;-71
2022/05/22 07:02:00;;;;;;;16.10;7.60;;;14.60;99.90;;;;;;5030847;28;20064;-71
2022/05/22 07:04:26;;;;;;;10.80;7.78;;;14.70;99.90;;;;;;5029815;28;20021;-75
2022/05/22 07:06:51;;;;;;;11.02;8.90;;;14.80;99.90;;;;;;5029106;28;20040;-75
2022/05/22 07:09:17;;;;;;;14.07;8.43;;;14.90;99.90;;;;;;5030157;28;20532;-76
2022/05/22 07:11:43;;;;;;;12.65;7.68;;;14.90;99.90;;;;;;5030609;28;20057;-75
2022/05/22 07:14:12;;;;;;;10.10;6.10;;;15.00;99.90;;;;;;5030557;28;20052;-76
2022/05/22 07:16:38;;;;;;;11.68;5.63;;;15.00;99.90;;;;;;5029133;28;20083;-76
2022/05/22 07:19:05;;;;;;;16.33;7.60;;;15.10;99.90;;;;;;5028590;28;20775;-76
2022/05/22 07:21:31;;;;;;;8.93;5.88;;;15.40;99.90;;;;;;5030294;28;20451;-76
2022/05/22 07:23:59;;;;;;;16.95;7.85;;;15.40;99.90;;;;;;5030580;28;20091;-76
2022/05/22 07:26:26;;;;;;;9.20;5.80;;;15.50;99.90;;;;;;5030326;28;20025;-76
2022/05/22 07:28:52;;;;;;;10.68;5.47;;;15.60;99.90;;;;;;5029963;28;20060;-76
2022/05/22 07:31:21;;;;;;;8.27;4.80;;;15.60;99.90;;;;;;5028807;28;20022;-76
2022/05/22 07:33:46;;;;;;;11.15;5.00;;;15.80;99.90;;;;;;5029908;28;20029;-78
2022/05/22 07:36:12;;;;;;;11.18;5.10;;;15.90;99.90;;;;;;5030198;28;20430;-78
2022/05/22 07:38:38;;;;;;;10.18;4.55;;;16.00;99.90;;;;;;5030094;28;20043;-78
2022/05/22 07:41:03;;;;;;;13.45;4.50;;;16.10;99.90;;;;;;5012495;28;20433;-78
2022/05/22 07:43:29;;;;;;;11.20;4.30;;;16.10;99.90;;;;;;5028964;28;20481;-78
2022/05/22 07:45:57;;;;;;;11.05;4.68;;;16.20;99.90;;;;;;5027736;28;20083;-77
2022/05/22 07:48:23;;;;;;;10.73;4.30;;;16.20;99.90;;;;;;5027399;28;20037;-78
2022/05/22 07:50:57;;;;;;;4.07;2.17;;;16.40;99.90;;;;;;5030411;28;20032;-78
2022/05/22 07:53:23;;;;;;;9.10;3.00;;;16.60;99.90;;;;;;5025890;28;20021;-77
2022/05/22 07:55:49;;;;;;;4.57;1.58;;;16.60;99.90;;;;;;5025449;28;20033;-76
2022/05/22 07:58:15;;;;;;;6.97;2.20;;;16.60;99.90;;;;;;5015468;28;20483;-77
2022/05/22 08:00:40;;;;;;;7.35;2.58;;;16.70;99.50;;;;;;5011000;28;20033;-77
2022/05/22 08:03:11;;;;;;;5.88;2.50;;;16.80;99.00;;;;;;5029206;28;20536;-77
2022/05/22 08:05:37;;;;;;;8.25;2.35;;;16.90;98.70;;;;;;5028615;28;20025;-78
2022/05/22 08:08:02;;;;;;;5.32;1.83;;;16.90;99.10;;;;;;5029631;28;20052;-77
2022/05/22 08:10:28;;;;;;;10.07;3.63;;;16.90;99.20;;;;;;5029672;28;20025;-76
2022/05/22 08:12:54;;;;;;;4.30;2.40;;;16.90;99.30;;;;;;5028743;28;20065;-77
2022/05/22 08:15:23;;;;;;;11.90;2.75;;;16.90;99.30;;;;;;5009753;28;20025;-77
2022/05/22 08:17:49;;;;;;;4.63;2.00;;;17.20;99.20;;;;;;5009837;28;20411;-77
2022/05/22 08:20:17;;;;;;;8.45;2.38;;;17.10;98.60;;;;;;5008490;28;20125;-76
2022/05/22 08:22:45;;;;;;;4.50;1.65;;;17.00;98.50;;;;;;5018453;28;20042;-77
2022/05/22 08:25:16;;;;;;;3.75;1.52;;;17.30;98.60;;;;;;5020981;28;20379;-77
2022/05/22 08:27:41;;;;;;;6.32;1.42;;;17.40;97.70;;;;;;5015244;28;20038;-77
2022/05/22 08:30:10;;;;;;;8.18;1.90;;;17.50;97.40;;;;;;5013698;28;20045;-78
2022/05/22 08:32:37;;;;;;;6.03;1.35;;;17.60;96.60;;;;;;5013286;28;20037;-77
2022/05/22 08:35:03;;;;;;;4.45;2.00;;;17.60;96.80;;;;;;5024930;28;20112;-77
2022/05/22 08:37:29;;;;;;;7.72;1.88;;;17.70;96.50;;;;;;5013783;28;20038;-77
2022/05/22 08:39:54;;;;;;;5.78;1.80;;;17.50;96.40;;;;;;5013757;28;20073;-77
2022/05/22 08:42:41;;;;;;;1.92;1.35;;;17.60;96.30;;;;;;5026776;28;20105;-77
2022/05/22 08:45:28;;;;;;;3.60;1.17;;;17.70;96.30;;;;;;5033421;28;20027;-77
2022/05/22 08:47:57;;;;;;;5.00;1.40;;;17.70;97.00;;;;;;5030676;28;20178;-78
2022/05/22 08:50:23;;;;;;;3.72;1.55;;;17.70;95.60;;;;;;5017460;28;20026;-78
2022/05/22 08:53:14;;;;;;;4.20;1.58;;;17.90;96.40;;;;;;5012266;28;20022;-79
2022/05/22 09:01:23;;;;;;;4.50;1.48;;;17.80;96.30;;;;;;5029175;28;20091;-78
2022/05/22 09:03:57;;;;;;;4.85;1.05;;;20.00;96.60;;;;;;5028917;28;20144;-77
2022/05/22 09:06:30;;;;;;;6.10;1.67;;;17.90;96.00;;;;;;5020169;28;20018;-77
2022/05/22 09:08:56;;;;;;;6.93;1.60;;;18.10;95.90;;;;;;5038472;28;20040;-78
2022/05/22 09:11:49;;;;;;;6.35;1.77;;;18.00;95.40;;;;;;5028844;28;20117;-77
2022/05/22 09:14:26;;;;;;;4.55;1.80;;;18.00;95.80;;;;;;5022860;28;20049;-77
2022/05/22 09:17:00;;;;;;;8.02;1.73;;;18.00;95.60;;;;;;5032573;28;20013;-77
2022/05/22 09:19:46;;;;;;;4.15;1.10;;;18.30;95.30;;;;;;5018640;28;20034;-77
2022/05/22 09:22:28;;;;;;;5.18;1.05;;;18.40;95.10;;;;;;5025794;28;20025;-77
2022/05/22 09:25:07;;;;;;;5.10;1.15;;;18.30;94.70;;;;;;5027696;28;20036;-75
2022/05/22 09:27:44;;;;;;;2.70;1.13;;;18.50;93.10;;;;;;5032485;28;20033;-76
2022/05/22 09:30:22;;;;;;;7.47;1.52;;;18.60;92.20;;;;;;5016585;28;20080;-77
2022/05/22 09:33:00;;;;;;;5.68;1.48;;;18.20;92.20;;;;;;5031006;28;20091;-77
2022/05/22 09:35:47;;;;;;;4.53;1.05;;;18.80;91.90;;;;;;5025645;28;20369;-77
2022/05/22 09:38:32;;;;;;;4.22;1.30;;;18.80;92.20;;;;;;5031087;28;20537;-77
2022/05/22 09:41:23;;;;;;;4.13;0.93;;;18.80;91.30;;;;;;5043060;28;20068;-77
2022/05/22 09:43:50;;;;;;;3.40;1.27;;;;;;;;;;5029267;28;20087;-77
2022/05/22 09:46:34;;;;;;;4.00;0.95;;;18.70;90.50;;;;;;5046138;28;20041;-75
2022/05/22 09:49:37;;;;;;;1.85;0.65;;;18.70;92.40;;;;;;5029608;28;20047;-76
2022/05/22 09:52:18;;;;;;;6.22;0.95;;;18.90;91.60;;;;;;5030114;28;20387;-75
2022/05/22 09:55:14;;;;;;;4.20;1.35;;;19.00;92.40;;;;;;5026723;28;20071;-79
2022/05/22 09:58:04;;;;;;;3.30;0.90;;;19.10;91.50;;;;;;5031140;28;20478;-75
2022/05/22 10:00:38;;;;;;;3.97;1.30;;;19.10;91.50;;;;;;5014625;28;20030;-76
2022/05/22 10:03:13;;;;;;;3.10;1.17;;;19.20;92.50;;;;;;5013160;28;20026;-75
2022/05/22 10:05:44;;;;;;;4.22;1.17;;;19.10;92.10;;;;;;5017674;28;20093;-75
2022/05/22 10:08:21;;;;;;;4.35;1.35;;;19.30;91.40;;;;;;5029461;28;20083;-74
2022/05/22 10:11:10;;;;;;;4.57;1.38;;;19.20;91.00;;;;;;5011886;28;20494;-74
2022/05/22 10:13:57;;;;;;;6.55;1.42;;;19.20;92.30;;;;;;5019004;28;20109;-75
2022/05/22 10:16:45;;;;;;;6.53;2.25;;;19.30;91.50;;;;;;5029035;28;20036;-76
2022/05/22 10:19:13;;;;;;;7.90;3.80;;;19.20;92.50;;;;;;5029857;28;20061;-76
2022/05/22 10:22:06;;;;;;;6.35;3.20;;;19.20;90.60;;;;;;5030213;28;20032;-76
2022/05/22 10:24:57;;;;;;;7.03;3.28;;;19.30;90.80;;;;;;5029597;28;20074;-76
2022/05/22 10:27:45;;;;;;;8.65;3.30;;;19.30;90.50;;;;;;5028528;28;20053;-76
2022/05/22 10:30:29;;;;;;;4.88;2.20;;;19.30;90.70;;;;;;5030037;28;20029;-75
2022/05/22 10:33:09;;;;;;;4.47;2.08;;;19.30;90.80;;;;;;5028724;28;20026;-76
2022/05/22 10:35:44;;;;;;;6.43;2.72;;;19.30;90.70;;;;;;5011249;28;20034;-75
2022/05/22 10:39:03;;;;;;;7.32;2.17;;;19.20;91.50;;;;;;5011726;28;20041;-76
2022/05/22 10:44:22;;;;;;;5.55;2.20;;;19.30;91.40;;;;;;5014917;28;20533;-76
2022/05/22 10:46:52;;;;;;;2.85;1.58;;;19.20;91.40;;;;;;5011255;28;20064;-76
2022/05/22 10:49:23;;;;;;;4.65;1.67;;;19.50;91.60;;;;;;5023952;28;20801;-72
2022/05/22 10:52:00;;;;;;;3.60;2.33;;;19.70;91.30;;;;;;5027868;28;20025;-76
2022/05/22 10:54:30;;;;;;;7.72;3.60;;;19.70;91.40;;;;;;5030144;28;20034;-75
2022/05/22 10:57:17;;;;;;;4.45;2.60;;;19.80;91.10;;;;;;5030622;28;20025;-75
2022/05/22 10:59:44;;;;;;;7.88;2.95;;;19.70;90.70;;;;;;5026287;28;20469;-78
2022/05/22 11:02:23;;;;;;;5.97;2.58;;;19.60;90.60;;;;;;5010740;28;20471;-77
2022/05/22 11:04:50;;;;;;;5.45;1.88;;;19.70;90.20;;;;;;5013664;28;20029;-75
2022/05/22 11:07:46;;;;;;;5.45;1.63;;;19.50;90.70;;;;;;5030221;28;20371;-75
2022/05/22 11:10:26;;;;;;;6.82;2.75;;;19.90;90.40;;;;;;5022975;28;20043;-75
2022/05/22 11:13:08;;;;;;;5.20;1.85;;;20.10;88.70;;;;;;5013078;28;20056;-76
2022/05/22 11:15:37;;;;;;;5.95;2.92;;;20.10;87.70;;;;;;5029436;28;20077;-75
2022/05/22 11:18:12;;;;;;;5.53;2.13;;;20.20;89.30;;;;;;5028865;28;20103;-75
2022/05/22 11:21:19;;;;;;;4.43;2.33;;;20.30;87.90;;;;;;5028419;28;20414;-76
2022/05/22 11:24:14;;;;;;;4.10;1.98;;;20.40;87.50;;;;;;5026438;28;20072;-75
2022/05/22 11:27:03;;;;;;;6.18;1.90;;;20.60;87.40;;;;;;5027855;28;20072;-75
2022/05/22 11:29:29;;;;;;;4.00;1.67;;;20.60;87.40;;;;;;5010126;28;20030;-75
2022/05/22 11:32:32;;;;;;;5.07;2.97;;;20.60;88.30;;;;;;5027557;28;20018;-73
2022/05/22 11:35:07;;;;;;;5.90;3.23;;;20.60;86.90;;;;;;5008234;28;20037;-74
2022/05/22 11:38:01;;;;;;;6.03;2.42;;;20.40;86.40;;;;;;5028062;28;20355;-74
2022/05/22 11:40:54;;;;;;;7.30;2.60;;;20.30;86.10;;;;;;5023250;28;20099;-75
2022/05/22 11:43:42;;;;;;;5.43;2.55;;;20.20;86.00;;;;;;5027782;28;20036;-74
2022/05/22 11:46:35;;;;;;;2.83;1.58;;;20.40;86.90;;;;;;5029566;28;20021;-74
2022/05/22 11:49:07;;;;;;;4.95;2.50;;;20.60;86.60;;;;;;5026939;28;20116;-74
2022/05/22 11:51:57;;;;;;;3.85;1.70;;;20.40;86.20;;;;;;5029208;28;20382;-74
2022/05/22 11:54:51;;;;;;;3.58;2.55;;;20.50;88.20;;;;;;5026524;28;20037;-74
2022/05/22 11:57:30;;;;;;;;;;;20.50;88.00;;;;;;5026650;28;20013;-74
2022/05/22 12:00:27;;;;;;;4.55;2.55;;;20.50;88.30;;;;;;5011150;28;19935;-74
2022/05/22 12:03:37;;;;;;;5.30;2.15;;;20.60;85.80;;;;;;4967877;28;20030;-75
2022/05/22 12:06:33;;;;;;;5.72;3.35;;;20.60;85.10;;;;;;4895279;29;20127;-76
2022/05/22 12:09:15;;;;;;;5.63;3.53;;;21.60;86.50;;;;;;4845440;29;20072;-74
2022/05/22 12:11:58;;;;;;;7.65;2.95;;;20.50;84.10;;;;;;4881383;29;20044;-74
2022/05/22 12:14:44;;;;;;;7.28;2.72;;;20.40;84.50;;;;;;4892741;29;20044;-74
2022/05/22 12:17:21;;;;;;;4.80;1.98;;;20.50;84.80;;;;;;4910963;29;20060;-74
2022/05/22 12:19:55;;;;;;;4.50;2.50;;;20.60;84.70;;;;;;4893691;29;20079;-73
2022/05/22 12:25:14;;;;;;;9.05;4.63;;;20.80;86.20;;;;;;4909985;29;20031;-74
2022/05/22 12:27:40;;;;;;;5.05;3.70;;;20.90;85.30;;;;;;4908409;29;20032;-72
2022/05/22 12:30:23;;;;;;;6.38;3.85;;;20.90;84.50;;;;;;4908313;29;20193;-72
2022/05/22 12:32:58;;;;;;;2.90;2.55;;;20.70;86.00;;;;;;4910596;29;20042;-72
2022/05/22 12:35:25;;;;;;;9.65;4.25;;;20.80;86.40;;;;;;4909319;29;20558;-72
2022/05/22 12:37:56;;;;;;;7.50;4.28;;;20.70;85.90;;;;;;4910695;29;20024;-72
2022/05/22 12:40:27;;;;;;;6.22;3.75;;;21.00;86.20;;;;;;4989944;28;20041;-73
2022/05/22 12:42:56;;;;;;;4.65;2.75;;;21.20;85.70;;;;;;5028926;28;20458;-72
2022/05/22 12:45:25;;;;;;;7.22;5.75;;;21.00;85.20;;;;;;5026955;28;20013;-73
2022/05/22 12:47:52;;;;;;;7.18;3.45;;;21.20;84.50;;;;;;5023316;28;20036;-73
2022/05/22 12:50:48;;;;;;;8.13;4.20;;;21.30;83.80;;;;;;5027885;28;20021;-73
2022/05/22 12:53:24;;;;;;;12.10;4.22;;;21.20;84.80;;;;;;5011337;28;20418;-72
2022/05/22 12:55:50;;;;;;;8.63;3.70;;;21.40;84.70;;;;;;5018795;28;20029;-73
2022/05/22 12:58:35;;;;;;;7.38;4.18;;;21.50;83.20;;;;;;5026637;28;20045;-73
2022/05/22 13:01:01;;;;;;;10.13;3.13;;;21.70;83.30;;;;;;5028552;28;20025;-72
2022/05/22 13:03:35;;;;;;;6.63;3.40;;;21.70;82.40;;;;;;5024753;28;20018;-72
2022/05/22 13:06:05;;;;;;;;;;;21.60;82.90;;;;;;5020636;28;20045;-72
2022/05/22 13:08:48;;;;;;;6.82;4.15;;;21.70;80.30;;;;;;5031157;28;19955;-72
2022/05/22 13:11:38;;;;;;;9.60;4.57;;;21.60;81.30;;;;;;5029856;28;20518;-72
2022/05/22 13:14:04;;;;;;;9.43;4.47;;;21.60;82.00;;;;;;5032131;28;20512;-72
2022/05/22 13:16:44;;;;;;;4.40;2.13;;;21.70;80.90;;;;;;5032333;28;20022;-72
2022/05/22 13:19:46;;;;;;;14.27;5.47;;;21.70;79.50;;;;;;5016735;28;20100;-72
2022/05/22 13:22:23;;;;;;;7.78;3.67;;;21.70;80.30;;;;;;5026748;28;20074;-72
2022/05/22 13:24:50;;;;;;;6.90;2.80;;;21.70;79.70;;;;;;5032344;28;20081;-72
2022/05/22 13:27:24;;;;;;;6.70;2.92;;;21.70;80.30;;;;;;5030680;28;20034;-72
2022/05/22 13:30:00;;;;;;;;;;;21.60;81.00;;;;;;5031193;28;20487;-72
2022/05/22 13:32:38;;;;;;;5.35;2.55;;;21.70;79.60;;;;;;5029870;28;19909;-72
2022/05/22 13:35:14;;;;;;;6.80;3.30;;;21.90;81.30;;;;;;5031037;28;20029;-72
2022/05/22 13:37:46;;;;;;;6.72;3.63;;;22.10;80.40;;;;;;5029548;28;20202;-72
2022/05/22 13:40:35;;;;;;;6.65;3.58;;;22.20;79.60;;;;;;5028364;28;20029;-72
2022/05/22 13:43:43;;;;;;;10.13;4.90;;;22.10;79.40;;;;;;5026708;28;20037;-72
2022/05/22 13:46:34;;;;;;;8.73;3.33;;;22.10;77.40;;;;;;5029005;28;20045;-72